Time;durP1;ratioP1;P1;durP2;ratioP2;P2;SDS_P1;SDS_P2;PMS_P1;PMS_P2;Temp;Humidity;BMP_temperature;BMP_pressure;BME280_temperature;BME280_humidity;BME280_pressure;Samples;Min_cycle;Max_cycle;Signal;HPM_P1;HPM_P2
2021/10/13 00:01:55;;;;;;;13.00;7.60;;;;;;;5.92;75.73;98431.53;112388;1190;72700;-23
2021/10/13 00:04:22;;;;;;;12.50;7.50;;;;;;;5.92;75.19;98430.29;112433;1190;61690;-23
2021/10/13 00:06:49;;;;;;;10.70;7.70;;;;;;;5.69;75.78;98428.11;112425;1190;60821;-23
2021/10/13 00:09:15;;;;;;;12.70;7.50;;;;;;;5.42;76.53;98427.98;112431;1190;74033;-24
2021/10/13 00:11:42;;;;;;;16.10;9.60;;;;;;;5.09;77.48;98426.46;112439;1190;74641;-24
2021/10/13 00:14:10;;;;;;;9.70;5.90;;;;;;;4.84;78.01;98426.90;112470;1190;73146;-25
2021/10/13 00:16:38;;;;;;;13.00;6.60;;;;;;;5.17;78.19;98422.10;112445;1190;60798;-24
2021/10/13 00:19:05;;;;;;;14.90;8.90;;;;;;;5.71;75.89;98424.52;112520;1190;60825;-24
2021/10/13 00:21:32;;;;;;;16.90;10.20;;;;;;;5.71;75.98;98417.37;112495;1190;75126;-25
2021/10/13 00:23:59;;;;;;;16.20;9.10;;;;;;;5.57;76.13;98422.11;112480;1190;74524;-25
2021/10/13 00:26:26;;;;;;;16.10;10.00;;;;;;;5.34;75.90;98416.98;112583;1190;73881;-24
2021/10/13 00:28:53;;;;;;;16.60;9.80;;;;;;;5.08;76.53;98415.19;112462;1190;60996;-25
2021/10/13 00:31:20;;;;;;;17.70;9.70;;;;;;;4.81;77.27;98414.41;112603;1190;61491;-23
2021/10/13 00:33:47;;;;;;;8.40;5.30;;;;;;;4.63;77.82;98411.51;112492;1190;75197;-23
2021/10/13 00:36:14;;;;;;;14.20;8.00;;;;;;;5.04;78.01;98405.77;112469;1190;75644;-23
2021/10/13 00:38:41;;;;;;;14.30;8.80;;;;;;;5.51;77.05;98403.05;112459;1192;73248;-22
2021/10/13 00:41:08;;;;;;;17.60;8.90;;;;;;;5.56;75.74;98403.55;112556;1191;60796;-23
2021/10/13 00:43:35;;;;;;;14.20;9.10;;;;;;;5.35;76.20;98398.02;112516;1190;60821;-23
2021/10/13 00:46:02;;;;;;;14.60;10.00;;;;;;;5.05;76.77;98397.16;112458;1190;74020;-30
2021/10/13 00:48:28;;;;;;;17.70;10.30;;;;;;;4.73;77.87;98402.55;112497;1190;75643;-23
2021/10/13 00:50:55;;;;;;;18.30;10.50;;;;;;;4.42;78.75;98399.11;112504;1192;71831;-23
2021/10/13 00:53:22;;;;;;;13.20;7.50;;;;;;;4.17;79.76;98399.36;112512;1190;61464;-24
2021/10/13 00:55:49;;;;;;;17.10;9.60;;;;;;;4.53;79.59;98402.33;112445;1191;60880;-24
2021/10/13 00:58:16;;;;;;;16.50;8.90;;;;;;;4.99;77.39;98395.15;112496;1190;75407;-25
2021/10/13 01:00:44;;;;;;;10.10;6.60;;;;;;;4.99;76.76;98391.85;112502;1190;75543;-24
2021/10/13 01:03:18;;;;;;;12.40;8.30;;;;;;;4.78;77.06;98391.05;112426;1192;73314;-24
2021/10/13 01:05:55;;;;;;;17.40;11.20;;;;;;;4.43;78.41;98389.96;112486;1190;60825;-23
2021/10/13 01:08:26;;;;;;;21.00;11.40;;;;;;;4.10;80.22;98391.25;112267;1193;61589;-23
2021/10/13 01:11:17;;;;;;;13.60;6.90;;;;;;;3.91;81.25;98393.84;112480;1190;75175;-25
2021/10/13 01:14:04;;;;;;;13.50;8.50;;;;;;;4.48;80.30;98404.89;112236;1190;75505;-24
2021/10/13 01:16:43;;;;;;;13.70;8.50;;;;;;;5.02;78.24;98407.45;112299;1192;74021;-23
2021/10/13 01:19:46;;;;;;;13.80;7.10;;;;;;;4.99;77.73;98408.90;112531;1190;61886;-23
2021/10/13 01:22:32;;;;;;;13.50;8.30;;;;;;;4.72;78.32;98407.30;112301;1192;60781;-23
2021/10/13 01:25:05;;;;;;;15.50;9.50;;;;;;;4.44;78.75;98404.45;112555;1190;75070;-25
2021/10/13 01:27:36;;;;;;;16.10;10.90;;;;;;;4.20;79.31;98402.28;112435;1191;72112;-26
2021/10/13 01:30:03;;;;;;;12.00;6.60;;;;;;;4.01;80.55;98403.30;112381;1191;73815;-24
2021/10/13 01:32:35;;;;;;;15.70;9.50;;;;;;;4.44;80.00;98409.42;112254;1192;61706;-25
2021/10/13 01:35:03;;;;;;;17.30;10.00;;;;;;;5.02;78.02;98415.53;112422;1190;60793;-24
2021/10/13 01:37:42;;;;;;;12.30;7.30;;;;;;;5.17;77.39;98420.06;112293;1192;75027;-24
2021/10/13 01:40:10;;;;;;;12.60;8.50;;;;;;;5.07;77.25;98417.66;112231;1192;75034;-25
2021/10/13 01:42:37;;;;;;;16.60;10.00;;;;;;;4.86;77.22;98414.92;112242;1197;73888;-25
2021/10/13 01:45:05;;;;;;;16.50;10.50;;;;;;;4.66;77.51;98416.13;112494;1190;62172;-25
2021/10/13 01:47:33;;;;;;;15.90;10.10;;;;;;;4.43;77.85;98423.80;112334;1190;61970;-26
2021/10/13 01:50:00;;;;;;;9.00;4.30;;;;;;;4.24;77.76;98432.58;112417;1193;75253;-25
2021/10/13 01:52:26;;;;;;;10.50;5.30;;;;;;;4.65;77.42;98436.95;112318;1190;75466;-24
2021/10/13 01:54:56;;;;;;;10.40;6.60;;;;;;;5.18;76.15;98441.33;112261;1194;73886;-22
2021/10/13 01:57:24;;;;;;;12.00;7.20;;;;;;;5.15;75.38;98442.20;112268;1192;61757;-25
2021/10/13 01:59:59;;;;;;;15.00;8.00;;;;;;;4.85;75.72;98446.98;112437;1190;60903;-25
2021/10/13 02:02:29;;;;;;;11.90;8.00;;;;;;;4.50;76.23;98451.00;112454;1190;75199;-23
2021/10/13 02:04:57;;;;;;;17.50;11.40;;;;;;;4.19;77.03;98451.64;112461;1190;75638;-25
2021/10/13 02:07:28;;;;;;;12.40;6.80;;;;;;;3.95;78.86;98445.45;112485;1191;74227;-24
2021/10/13 02:09:58;;;;;;;15.50;8.90;;;;;;;4.34;78.82;98445.17;112187;1190;60828;-24
2021/10/13 02:12:25;;;;;;;11.90;8.30;;;;;;;4.91;76.84;98444.19;112263;1193;61899;-25
2021/10/13 02:14:53;;;;;;;9.30;6.30;;;;;;;4.93;75.90;98443.16;112430;1192;75173;-24
2021/10/13 02:17:20;;;;;;;16.10;9.50;;;;;;;4.72;76.17;98443.74;112222;1192;74687;-25
2021/10/13 02:19:47;;;;;;;20.30;9.80;;;;;;;4.41;77.09;98441.14;112290;1192;74087;-25
2021/10/13 02:22:16;;;;;;;13.90;10.10;;;;;;;4.11;78.21;98444.76;112409;1191;60915;-26
2021/10/13 02:24:48;;;;;;;12.60;7.10;;;;;;;3.91;79.00;98444.14;112212;1194;60870;-26
2021/10/13 02:27:26;;;;;;;15.60;8.80;;;;;;;4.32;79.22;98446.34;112452;1193;75168;-25
2021/10/13 02:29:53;;;;;;;13.20;7.80;;;;;;;4.83;76.77;98449.33;112404;1190;75850;-24
2021/10/13 02:32:20;;;;;;;10.00;6.10;;;;;;;4.79;76.59;98450.48;112391;1190;72961;-26
2021/10/13 02:34:48;;;;;;;7.80;6.10;;;;;;;4.57;77.23;98452.78;112448;1191;60906;-25
2021/10/13 02:37:15;;;;;;;7.70;6.70;;;;;;;4.31;77.45;98454.14;112240;1191;60874;-24
2021/10/13 02:39:44;;;;;;;10.50;7.60;;;;;;;4.03;77.59;98456.94;112493;1190;74474;-26
2021/10/13 02:42:11;;;;;;;8.40;7.40;;;;;;;3.76;78.01;98463.97;112538;1190;73760;-27
2021/10/13 02:44:38;;;;;;;6.40;4.30;;;;;;;3.57;78.92;98464.80;112498;1190;73970;-23
2021/10/13 02:47:13;;;;;;;8.00;6.20;;;;;;;4.00;78.64;98454.73;112405;1192;60822;-24
2021/10/13 02:50:06;;;;;;;7.50;6.00;;;;;;;4.61;76.72;98458.70;112210;1192;61530;-24
2021/10/13 02:52:52;;;;;;;8.30;5.50;;;;;;;4.58;75.39;98457.04;112508;1191;74998;-23
2021/10/13 02:55:21;;;;;;;6.40;5.10;;;;;;;4.09;75.42;98453.48;112518;1190;75624;-22
2021/10/13 02:58:04;;;;;;;7.30;6.40;;;;;;;3.59;76.91;98462.26;112258;1192;74158;-25
2021/10/13 03:00:32;;;;;;;7.80;7.00;;;;;;;3.15;78.20;98466.31;112424;1191;61409;-24
2021/10/13 03:03:07;;;;;;;7.50;6.70;;;;;;;2.86;79.34;98470.42;112208;1191;61737;-25
2021/10/13 03:05:35;;;;;;;6.20;4.80;;;;;;;2.65;79.78;98470.61;112461;1191;75400;-25
2021/10/13 03:08:04;;;;;;;7.10;5.90;;;;;;;3.09;79.38;98472.96;112442;1190;74843;-25
2021/10/13 03:10:33;;;;;;;7.20;6.10;;;;;;;3.61;77.11;98464.88;112458;1191;74194;-25
2021/10/13 03:13:01;;;;;;;6.20;5.60;;;;;;;3.58;76.60;98460.26;112321;1192;60806;-23
2021/10/13 03:15:29;;;;;;;5.00;4.40;;;;;;;3.33;77.08;98461.98;112500;1190;62114;-23
2021/10/13 03:17:57;;;;;;;6.20;5.60;;;;;;;3.06;77.32;98466.33;112243;1190;75201;-23
2021/10/13 03:20:25;;;;;;;5.90;5.30;;;;;;;2.73;77.98;98466.89;112332;1193;75532;-23
2021/10/13 03:22:54;;;;;;;7.10;6.30;;;;;;;2.38;79.00;98466.63;112285;1192;74072;-23
2021/10/13 03:25:28;;;;;;;5.60;4.80;;;;;;;2.02;80.82;98466.41;112428;1190;61537;-23
2021/10/13 03:27:56;;;;;;;7.90;7.10;;;;;;;2.32;80.48;98466.14;112478;1193;61650;-23
2021/10/13 03:30:25;;;;;;;5.90;5.30;;;;;;;2.77;78.67;98466.67;112268;1193;73653;-23
2021/10/13 03:32:53;;;;;;;5.80;4.70;;;;;;;2.63;78.57;98461.95;112511;1189;76198;-23
2021/10/13 03:35:24;;;;;;;6.30;4.80;;;;;;;2.39;79.12;98459.08;112582;1190;73119;-23
2021/10/13 03:37:52;;;;;;;6.90;5.90;;;;;;;2.12;80.15;98470.51;112273;1191;60758;-22
2021/10/13 03:40:20;;;;;;;7.50;6.70;;;;;;;1.92;81.43;98475.52;112220;1190;60781;-22
2021/10/13 03:42:47;;;;;;;6.30;4.20;;;;;;;1.80;82.17;98478.41;112333;1193;75078;-22
2021/10/13 03:45:15;;;;;;;8.70;6.00;;;;;;;2.24;81.41;98479.60;112467;1190;75445;-22
2021/10/13 03:47:42;;;;;;;7.70;6.80;;;;;;;2.89;79.74;98481.38;112280;1192;73369;-22
2021/10/13 03:50:10;;;;;;;7.10;6.10;;;;;;;3.11;79.04;98489.32;112489;1190;60984;-23
2021/10/13 03:52:38;;;;;;;5.50;4.30;;;;;;;3.07;79.25;98489.75;112442;1192;60751;-22
2021/10/13 03:55:06;;;;;;;6.70;5.50;;;;;;;2.95;79.45;98488.58;112543;1190;75166;-22
2021/10/13 03:57:36;;;;;;;8.30;7.40;;;;;;;2.81;79.70;98479.94;112238;1192;74284;-21
2021/10/13 04:00:04;;;;;;;9.50;7.20;;;;;;;2.64;80.32;98474.25;112498;1190;73933;-22
2021/10/13 04:02:34;;;;;;;8.30;5.70;;;;;;;2.52;80.97;98482.14;112230;1191;60823;-21
2021/10/13 04:05:01;;;;;;;8.40;6.30;;;;;;;3.02;80.49;98495.35;112462;1191;60921;-22
2021/10/13 04:07:29;;;;;;;7.80;6.10;;;;;;;3.66;78.69;98498.38;112502;1190;75343;-23
2021/10/13 04:09:55;;;;;;;6.30;5.30;;;;;;;3.85;77.78;98499.10;112413;1191;75684;-21
2021/10/13 04:12:22;;;;;;;7.60;5.80;;;;;;;3.75;77.76;98497.48;112549;1190;73456;-22
2021/10/13 04:14:50;;;;;;;9.40;7.10;;;;;;;3.47;79.22;98492.52;112517;1190;60797;-22
2021/10/13 04:17:16;;;;;;;10.30;8.00;;;;;;;3.13;80.94;98488.36;112582;1190;61175;-22
2021/10/13 04:19:43;;;;;;;10.40;9.00;;;;;;;2.90;81.53;98486.95;112495;1190;74524;-22
2021/10/13 04:22:10;;;;;;;7.50;5.10;;;;;;;2.77;82.10;98479.66;112467;1190;75620;-21
2021/10/13 04:24:37;;;;;;;8.80;6.70;;;;;;;3.29;81.33;98480.58;112382;1192;72985;-22
2021/10/13 04:27:06;;;;;;;8.90;7.30;;;;;;;3.98;79.33;98493.36;112478;1190;60822;-22
2021/10/13 04:29:34;;;;;;;9.20;6.30;;;;;;;4.12;78.57;98489.04;112472;1190;60867;-22
2021/10/13 04:32:01;;;;;;;7.90;6.50;;;;;;;3.98;78.49;98486.98;112502;1192;74240;-22
2021/10/13 04:34:28;;;;;;;11.40;7.70;;;;;;;3.76;79.32;98487.84;112506;1190;75568;-23
2021/10/13 04:36:55;;;;;;;11.30;9.30;;;;;;;3.60;79.90;98497.06;112525;1190;73957;-23
2021/10/13 04:39:22;;;;;;;11.10;5.40;;;;;;;3.46;80.81;98501.52;112527;1190;60976;-21
2021/10/13 04:41:50;;;;;;;11.60;7.60;;;;;;;3.87;80.45;98504.80;112522;1190;60823;-23
2021/10/13 04:44:17;;;;;;;11.10;8.70;;;;;;;4.47;78.62;98508.48;112471;1192;74396;-23
2021/10/13 04:46:44;;;;;;;10.10;7.30;;;;;;;4.53;77.97;98507.91;112500;1190;75652;-21
2021/10/13 04:49:11;;;;;;;8.50;7.30;;;;;;;4.31;78.45;98510.13;112537;1190;73392;-21
2021/10/13 04:51:38;;;;;;;8.20;6.90;;;;;;;4.04;79.24;98516.66;112462;1190;60871;-20
2021/10/13 04:54:05;;;;;;;12.60;9.20;;;;;;;3.74;80.41;98516.79;112581;1190;60751;-21
2021/10/13 04:56:32;;;;;;;10.20;7.80;;;;;;;3.50;81.53;98518.27;112501;1190;75203;-21
2021/10/13 04:58:59;;;;;;;9.20;7.00;;;;;;;3.82;81.31;98514.59;112568;1190;74720;-21
2021/10/13 05:01:26;;;;;;;9.80;7.50;;;;;;;4.34;79.57;98515.64;112559;1190;72910;-21
2021/10/13 05:03:54;;;;;;;7.40;5.80;;;;;;;4.45;78.92;98518.03;112518;1190;60762;-21
2021/10/13 05:06:23;;;;;;;9.60;6.90;;;;;;;4.29;79.20;98521.59;112466;1190;61025;-21
2021/10/13 05:08:50;;;;;;;11.80;8.30;;;;;;;4.06;80.02;98525.80;112543;1190;74093;-21
2021/10/13 05:11:17;;;;;;;9.80;8.60;;;;;;;3.81;80.91;98532.48;112512;1190;75480;-21
2021/10/13 05:13:45;;;;;;;9.10;5.90;;;;;;;3.62;81.56;98530.89;112501;1190;74034;-21
2021/10/13 05:16:15;;;;;;;11.30;8.90;;;;;;;4.02;81.15;98539.45;112492;1190;60813;-21
2021/10/13 05:18:43;;;;;;;9.00;7.20;;;;;;;4.52;79.36;98540.27;112244;1190;60877;-23
2021/10/13 05:21:11;;;;;;;7.60;6.10;;;;;;;4.59;78.60;98544.63;112572;1190;75222;-24
2021/10/13 05:23:38;;;;;;;11.40;8.10;;;;;;;4.44;79.02;98540.09;112460;1190;75096;-24
2021/10/13 05:26:05;;;;;;;9.60;7.70;;;;;;;4.20;79.72;98539.21;112541;1190;75230;-23
2021/10/13 05:28:32;;;;;;;9.70;7.00;;;;;;;3.96;80.29;98539.14;112439;1190;60819;-22
2021/10/13 05:30:59;;;;;;;9.60;6.80;;;;;;;3.73;81.32;98548.45;112496;1190;60795;-21
2021/10/13 05:33:26;;;;;;;8.80;6.60;;;;;;;4.09;81.18;98554.33;112488;1190;75615;-22
2021/10/13 05:35:53;;;;;;;10.20;7.40;;;;;;;4.69;79.27;98555.17;112438;1190;75626;-22
2021/10/13 05:38:20;;;;;;;9.40;6.10;;;;;;;4.82;78.50;98564.48;112518;1190;73010;-22
2021/10/13 05:40:48;;;;;;;10.10;7.10;;;;;;;4.69;78.51;98563.11;112434;1190;60887;-22
2021/10/13 05:43:17;;;;;;;11.10;9.00;;;;;;;4.48;79.26;98570.27;112428;1190;60822;-23
2021/10/13 05:45:44;;;;;;;11.70;9.00;;;;;;;4.25;80.03;98570.14;112471;1190;74355;-23
2021/10/13 05:48:11;;;;;;;7.50;5.70;;;;;;;4.08;80.89;98572.06;112452;1190;75636;-21
2021/10/13 05:50:39;;;;;;;11.00;7.80;;;;;;;4.48;80.70;98570.45;112496;1190;72409;-22
2021/10/13 05:53:07;;;;;;;10.80;8.50;;;;;;;4.94;78.79;98569.93;112452;1190;60891;-22
2021/10/13 05:55:43;;;;;;;9.80;7.10;;;;;;;4.91;78.64;98567.36;112486;1190;60820;-22
2021/10/13 05:58:10;;;;;;;12.40;8.50;;;;;;;4.75;79.36;98565.47;112594;1190;75359;-22
2021/10/13 06:00:37;;;;;;;10.60;7.50;;;;;;;4.56;80.33;98568.38;112229;1191;74447;-22
2021/10/13 06:03:05;;;;;;;11.70;9.00;;;;;;;4.33;81.44;98573.30;112449;1192;70787;-22
2021/10/13 06:05:33;;;;;;;10.90;7.60;;;;;;;4.14;83.20;98574.77;112516;1190;61168;-22
2021/10/13 06:08:00;;;;;;;12.40;8.20;;;;;;;4.66;82.50;98575.80;112508;1190;60780;-22
2021/10/13 06:10:27;;;;;;;14.10;9.30;;;;;;;5.30;79.90;98576.85;112460;1192;75157;-22
2021/10/13 06:12:54;;;;;;;14.00;8.70;;;;;;;5.35;79.40;98576.30;112115;1190;74662;-22
2021/10/13 06:15:23;;;;;;;13.90;9.60;;;;;;;5.15;80.00;98579.67;112546;1190;73915;-23
2021/10/13 06:17:50;;;;;;;17.00;11.00;;;;;;;4.89;81.54;98573.52;112470;1191;61455;-22
2021/10/13 06:20:17;;;;;;;16.80;10.40;;;;;;;4.79;82.41;98583.98;112524;1190;60975;-23
2021/10/13 06:22:44;;;;;;;11.00;8.00;;;;;;;4.74;82.94;98587.02;112472;1190;74630;-20
2021/10/13 06:25:11;;;;;;;603.80;168.60;;;;;;;5.27;82.08;98592.86;112472;1190;73474;-21
2021/10/13 06:27:39;;;;;;;47.70;23.80;;;;;;;5.94;79.84;98598.99;112485;1190;74166;-21
2021/10/13 06:30:06;;;;;;;19.40;12.00;;;;;;;6.02;78.98;98601.41;112467;1190;60913;-17
2021/10/13 06:32:34;;;;;;;17.70;11.90;;;;;;;5.89;79.52;98598.32;112405;1191;61399;-23
2021/10/13 06:35:01;;;;;;;69.80;19.50;;;;;;;5.61;80.30;98598.33;112429;1191;74163;-23
2021/10/13 06:37:28;;;;;;;18.20;14.20;;;;;;;4.81;83.66;98598.91;112466;1190;75403;-24
2021/10/13 06:39:55;;;;;;;16.30;11.20;;;;;;;4.87;84.68;98602.48;112498;1190;73388;-22
2021/10/13 06:42:23;;;;;;;16.90;12.40;;;;;;;5.95;81.41;98604.98;112495;1190;60832;-22
2021/10/13 06:44:54;;;;;;;17.70;11.80;;;;;;;6.18;79.84;98609.27;112369;1190;61354;-25
2021/10/13 06:47:21;;;;;;;18.90;13.40;;;;;;;6.19;79.02;98608.17;112530;1190;75304;-23
2021/10/13 06:49:47;;;;;;;74.20;50.90;;;;;;;5.39;81.91;98609.48;112492;1190;74282;-25
2021/10/13 06:52:14;;;;;;;74.10;57.60;;;;;;;5.46;82.17;98611.02;112534;1190;74015;-23
2021/10/13 06:54:41;;;;;;;87.80;78.90;;;;;;;5.53;81.78;98617.79;112476;1190;60833;-22
2021/10/13 06:57:08;;;;;;;11.20;8.70;;;;;;;5.60;81.50;98626.80;112463;1190;60806;-22
2021/10/13 06:59:36;;;;;;;10.90;7.40;;;;;;;6.03;80.24;98627.86;112468;1190;74356;-22
2021/10/13 07:02:03;;;;;;;12.40;8.60;;;;;;;6.55;78.89;98630.98;112526;1190;75466;-22
2021/10/13 07:04:32;;;;;;;12.50;8.50;;;;;;;6.62;78.14;98634.27;112483;1192;71913;-22
2021/10/13 07:07:00;;;;;;;14.40;9.70;;;;;;;6.35;79.18;98636.91;112462;1190;60864;-22
2021/10/13 07:09:27;;;;;;;14.70;10.00;;;;;;;6.21;79.39;98637.18;112223;1192;61589;-22
2021/10/13 07:11:54;;;;;;;13.30;10.00;;;;;;;6.04;79.85;98636.44;112613;1190;74114;-22
2021/10/13 07:14:21;;;;;;;10.20;6.70;;;;;;;5.95;80.80;98634.29;112525;1190;75678;-22
2021/10/13 07:16:48;;;;;;;17.70;11.40;;;;;;;6.38;80.28;98640.76;112501;1190;72975;-22
2021/10/13 07:19:16;;;;;;;11.00;8.20;;;;;;;6.80;77.79;98634.58;112454;1190;60840;-22
2021/10/13 07:21:43;;;;;;;18.20;11.80;;;;;;;6.99;77.70;98635.79;112548;1190;60965;-22
2021/10/13 07:24:10;;;;;;;16.50;11.80;;;;;;;6.89;78.46;98640.98;112509;1192;75183;-23
2021/10/13 07:26:37;;;;;;;17.20;10.30;;;;;;;5.92;82.00;98641.02;112420;1184;75651;-23
2021/10/13 07:29:04;;;;;;;13.00;8.60;;;;;;;6.25;81.50;98645.64;112523;1190;73843;-22
2021/10/13 07:31:32;;;;;;;8.80;6.10;;;;;;;6.26;81.47;98648.00;112456;1190;62878;-23
2021/10/13 07:33:59;;;;;;;12.50;8.40;;;;;;;6.67;80.79;98654.33;112575;1190;60850;-23
2021/10/13 07:36:28;;;;;;;13.50;8.70;;;;;;;7.07;78.46;98656.97;112510;1190;75343;-23
2021/10/13 07:38:55;;;;;;;16.30;10.50;;;;;;;6.67;78.66;98658.73;112453;1191;75634;-23
2021/10/13 07:41:23;;;;;;;15.00;9.30;;;;;;;6.56;80.53;98663.19;112493;1190;72969;-23
2021/10/13 07:43:50;;;;;;;18.80;11.90;;;;;;;6.14;80.81;98667.27;112464;1190;60851;-23
2021/10/13 07:46:17;;;;;;;15.30;9.70;;;;;;;5.77;82.73;98676.31;112489;1190;60758;-22
2021/10/13 07:48:44;;;;;;;13.30;7.10;;;;;;;6.20;81.49;98681.72;112483;1190;75188;-22
2021/10/13 07:51:12;;;;;;;14.50;8.20;;;;;;;6.79;79.54;98683.79;112509;1190;75669;-23
2021/10/13 07:53:39;;;;;;;11.70;8.40;;;;;;;6.87;78.24;98686.71;112558;1190;74171;-23
2021/10/13 07:56:06;;;;;;;10.20;6.40;;;;;;;7.21;77.56;98686.30;112492;1190;61171;-21
2021/10/13 07:58:33;;;;;;;13.40;8.50;;;;;;;7.20;77.37;98682.41;112460;1190;60774;-21
2021/10/13 08:01:00;;;;;;;312.50;99.80;;;;;;;6.90;77.90;98682.88;112537;1190;75087;-21
2021/10/13 08:03:28;;;;;;;104.70;44.10;;;;;;;6.65;79.16;98683.91;112515;1190;75555;-21
2021/10/13 08:05:55;;;;;;;50.30;29.50;;;;;;;6.09;80.36;98685.91;112483;1190;74016;-24
2021/10/13 08:08:22;;;;;;;16.80;9.30;;;;;;;5.70;82.39;98678.83;112523;1190;62240;-23
2021/10/13 08:10:49;;;;;;;18.90;13.60;;;;;;;6.72;79.58;98674.31;112496;1190;60946;-23
2021/10/13 08:13:35;;;;;;;14.30;9.50;;;;;;;7.22;76.29;98670.34;112466;1190;76299;-22
2021/10/13 08:16:02;;;;;;;12.00;7.50;;;;;;;7.24;76.83;98663.69;112523;1190;75626;-22
2021/10/13 08:18:32;;;;;;;36.20;31.00;;;;;;;7.10;77.26;98666.21;112490;1193;74111;-22
2021/10/13 08:20:59;;;;;;;14.50;9.50;;;;;;;6.69;78.46;98668.29;112488;1190;60773;-22
2021/10/13 08:23:26;;;;;;;12.50;8.50;;;;;;;6.47;80.03;98665.20;112523;1190;61622;-22
2021/10/13 08:25:58;;;;;;;13.60;7.00;;;;;;;6.51;80.06;98665.27;112525;1190;74098;-21
2021/10/13 08:28:26;;;;;;;13.30;7.10;;;;;;;6.49;79.95;98666.27;112415;1190;74642;-21
2021/10/13 08:30:54;;;;;;;12.00;7.80;;;;;;;7.07;77.86;98664.89;112229;1193;72003;-22
2021/10/13 08:33:21;;;;;;;14.20;7.70;;;;;;;7.32;76.64;98660.86;112367;1190;60835;-22
2021/10/13 08:35:48;;;;;;;11.40;8.40;;;;;;;7.06;77.51;98662.55;112503;1190;60946;-22
2021/10/13 08:38:15;;;;;;;14.80;9.30;;;;;;;6.68;77.84;98664.76;112468;1190;73170;-22
2021/10/13 08:40:45;;;;;;;13.90;9.20;;;;;;;6.45;78.42;98665.33;112506;1184;75554;-22
2021/10/13 08:43:12;;;;;;;17.20;8.10;;;;;;;6.20;79.41;98665.31;112438;1192;73058;-22
2021/10/13 08:45:41;;;;;;;8.30;5.50;;;;;;;5.80;81.35;98661.48;112569;1190;62261;-22
2021/10/13 08:48:08;;;;;;;11.10;7.10;;;;;;;6.39;80.04;98666.94;112537;1190;60821;-22
2021/10/13 08:50:36;;;;;;;11.10;7.60;;;;;;;6.66;77.94;98675.55;112463;1190;74237;-23
2021/10/13 08:53:13;;;;;;;15.70;11.10;;;;;;;6.46;77.61;98675.59;112229;1192;74524;-22
2021/10/13 08:55:42;;;;;;;14.40;9.10;;;;;;;5.76;81.10;98675.83;112400;1190;73087;-22
2021/10/13 08:58:18;;;;;;;12.00;7.50;;;;;;;6.16;80.22;98678.70;112238;1193;61785;-23
2021/10/13 09:00:47;;;;;;;16.00;9.90;;;;;;;5.63;81.01;98676.52;112485;1190;61136;-23
2021/10/13 09:03:37;;;;;;;16.80;8.80;;;;;;;5.76;81.16;98684.50;112222;1192;72452;-23
2021/10/13 09:06:31;;;;;;;12.40;7.60;;;;;;;6.38;78.88;98692.89;112429;1191;74724;-23
2021/10/13 09:09:06;;;;;;;15.50;9.30;;;;;;;5.62;80.84;98688.69;112393;1192;73808;-22
2021/10/13 09:11:39;;;;;;;18.20;9.90;;;;;;;5.63;81.51;98697.55;112444;1193;60877;-23
2021/10/13 09:14:07;;;;;;;11.90;7.70;;;;;;;6.25;80.27;98699.12;112459;1190;60853;-23
2021/10/13 09:16:56;;;;;;;9.80;5.30;;;;;;;6.37;79.26;98704.14;112498;1190;74358;-23
2021/10/13 09:19:26;;;;;;;11.40;6.50;;;;;;;6.96;77.85;98703.64;112438;1190;74535;-23
2021/10/13 09:21:56;;;;;;;12.80;8.00;;;;;;;7.58;75.82;98699.16;112479;1193;74049;-23
2021/10/13 09:24:25;;;;;;;12.00;7.70;;;;;;;7.73;73.24;98701.47;112444;1193;60809;-23
2021/10/13 09:26:54;;;;;;;13.90;9.20;;;;;;;7.72;74.07;98701.60;112209;1192;61801;-22
2021/10/13 09:29:21;;;;;;;13.50;8.30;;;;;;;7.64;74.18;98708.05;112476;1192;74206;-23
2021/10/13 09:31:59;;;;;;;15.20;8.50;;;;;;;7.62;74.68;98704.73;112453;1190;74862;-23
2021/10/13 09:34:26;;;;;;;14.10;7.90;;;;;;;7.41;75.17;98704.01;112385;1192;73448;-23
2021/10/13 09:37:01;;;;;;;8.50;6.30;;;;;;;7.52;75.77;98701.02;112505;1190;63228;-23
2021/10/13 09:39:29;;;;;;;10.70;6.40;;;;;;;7.96;73.21;98699.08;112432;1190;60825;-22
2021/10/13 09:41:59;;;;;;;12.30;6.90;;;;;;;8.56;72.15;98697.67;112278;1190;75064;-23
2021/10/13 09:44:28;;;;;;;14.20;8.30;;;;;;;8.47;70.65;98694.14;112510;1190;74668;-23
2021/10/13 09:47:00;;;;;;;14.90;9.00;;;;;;;8.19;72.68;98684.20;112443;1193;73703;-23
2021/10/13 09:49:35;;;;;;;13.70;7.80;;;;;;;8.03;72.73;98678.36;112250;1191;61652;-24
2021/10/13 09:52:03;;;;;;;16.90;9.20;;;;;;;7.76;73.54;98679.18;112453;1191;60905;-25
2021/10/13 09:54:30;;;;;;;14.10;7.80;;;;;;;7.78;74.83;98679.02;112527;1190;75259;-24
2021/10/13 09:56:57;;;;;;;14.80;9.40;;;;;;;7.86;74.36;98679.98;112514;1190;74627;-24
2021/10/13 09:59:24;;;;;;;14.60;9.10;;;;;;;7.79;74.17;98682.02;112497;1190;73483;-24
2021/10/13 10:01:55;;;;;;;15.30;7.80;;;;;;;7.82;75.34;98680.09;112478;1190;60998;-22
2021/10/13 10:04:25;;;;;;;14.10;7.60;;;;;;;8.55;73.72;98685.02;112242;1193;61583;-23
2021/10/13 10:06:58;;;;;;;13.20;9.10;;;;;;;9.18;70.09;98681.64;112148;1193;75389;-23
2021/10/13 10:09:26;;;;;;;12.30;8.00;;;;;;;8.99;68.68;98684.42;112466;1190;74637;-22
2021/10/13 10:12:03;;;;;;;16.30;9.90;;;;;;;8.94;70.39;98677.81;112434;1191;73905;-22
2021/10/13 10:14:43;;;;;;;19.80;10.40;;;;;;;9.18;69.72;98681.26;112538;1190;61671;-23
2021/10/13 10:17:10;;;;;;;16.20;9.50;;;;;;;9.12;69.32;98683.69;112237;1190;61642;-22
2021/10/13 10:19:40;;;;;;;16.70;9.00;;;;;;;8.98;69.33;98682.73;112541;1190;73251;-22
2021/10/13 10:22:14;;;;;;;15.20;9.00;;;;;;;9.08;68.77;98681.21;112482;1190;75568;-22
2021/10/13 10:24:51;;;;;;;17.50;10.30;;;;;;;9.31;69.13;98683.56;112426;1192;73994;-23
2021/10/13 10:27:34;;;;;;;13.90;9.20;;;;;;;9.39;67.77;98677.35;112413;1192;60781;-25
2021/10/13 10:30:08;;;;;;;16.10;9.10;;;;;;;9.30;68.17;98669.74;112403;1190;61447;-23
2021/10/13 10:32:36;;;;;;;13.30;9.20;;;;;;;9.53;68.87;98669.27;112203;1190;75196;-24
2021/10/13 10:35:03;;;;;;;14.10;9.80;;;;;;;9.27;68.20;98665.52;112442;1192;74241;-25
2021/10/13 10:37:46;;;;;;;16.00;10.00;;;;;;;9.52;69.06;98669.05;112481;1190;71996;-22
2021/10/13 10:40:15;;;;;;;;;;;;;;;9.93;67.88;98676.33;112271;1190;60879;-22
2021/10/13 10:43:03;;;;;;;16.00;8.30;;;;;;;9.86;66.18;98676.41;112434;1190;60784;-24
2021/10/13 10:45:39;;;;;;;16.10;10.20;;;;;;;9.64;66.24;98672.19;112457;1192;75305;-22
2021/10/13 10:48:11;;;;;;;15.70;9.10;;;;;;;9.36;68.34;98675.38;112453;1183;75922;-22
2021/10/13 10:51:02;;;;;;;17.00;9.70;;;;;;;9.67;66.98;98673.80;112415;1190;72857;-23
2021/10/13 10:53:44;;;;;;;15.90;8.70;;;;;;;9.72;66.24;98674.98;112433;1190;60806;-23
2021/10/13 10:56:27;;;;;;;10.80;7.50;;;;;;;10.03;66.48;98679.11;112492;1190;60922;-23
2021/10/13 10:59:04;;;;;;;18.00;10.30;;;;;;;10.27;65.46;98677.77;112466;1190;75263;-23
2021/10/13 11:01:33;;;;;;;17.20;9.40;;;;;;;10.14;64.00;98671.30;112465;1191;75648;-23
2021/10/13 11:04:11;;;;;;;12.10;7.50;;;;;;;10.56;63.24;98674.50;112239;1192;72738;-23
2021/10/13 11:06:47;;;;;;;14.60;8.40;;;;;;;10.49;62.76;98672.46;112227;1190;60837;-23
2021/10/13 11:09:15;;;;;;;12.70;8.80;;;;;;;10.38;63.10;98669.80;112506;1190;60744;-23
2021/10/13 11:11:43;;;;;;;13.80;7.90;;;;;;;10.55;63.23;98672.13;112510;1190;75156;-23
2021/10/13 11:14:13;;;;;;;12.20;7.20;;;;;;;10.49;62.77;98671.94;112450;1192;74991;-22
2021/10/13 11:16:58;;;;;;;14.30;9.10;;;;;;;10.43;63.26;98669.33;112520;1190;71584;-22
2021/10/13 11:19:28;;;;;;;15.00;8.20;;;;;;;10.57;63.51;98664.15;112493;1190;61640;-23
2021/10/13 11:22:07;;;;;;;12.20;7.50;;;;;;;10.45;62.71;98668.14;112270;1190;60940;-22
2021/10/13 11:24:36;;;;;;;13.40;7.40;;;;;;;10.53;63.19;98669.54;112411;1192;74905;-23
2021/10/13 11:27:03;;;;;;;13.60;8.30;;;;;;;10.50;62.80;98672.02;112238;1183;76131;-23
2021/10/13 11:29:32;;;;;;;14.10;9.30;;;;;;;10.25;64.08;98673.30;112447;1190;73045;-22
2021/10/13 11:32:04;;;;;;;12.40;8.30;;;;;;;10.39;62.20;98679.05;112296;1192;61042;-22
2021/10/13 11:34:31;;;;;;;15.80;8.80;;;;;;;10.23;62.43;98679.77;112252;1193;61613;-23
2021/10/13 11:36:59;;;;;;;14.50;7.40;;;;;;;10.17;63.26;98683.48;112447;1192;74327;-23